sensor_id;sensor_type;location;lat;lon;timestamp;pressure;altitude;pressure_sealevel;temperature;humidity
34297;BME280;20564;42.902;25.336;2023-04-26T00:01:56;96280.84;;;9.80;100.00
34297;BME280;20564;42.902;25.336;2023-04-26T00:05:19;96274.78;;;9.79;100.00
34297;BME280;20564;42.902;25.336;2023-04-26T00:08:02;96272.84;;;9.81;100.00
34297;BME280;20564;42.902;25.336;2023-04-26T00:10:46;96258.09;;;9.88;100.00
34297;BME280;20564;42.902;25.336;2023-04-26T00:13:57;96266.31;;;9.94;100.00
34297;BME280;20564;42.902;25.336;2023-04-26T00:19:58;96239.59;;;9.72;100.00
34297;BME280;20564;42.902;25.336;2023-04-26T00:22:26;96264.00;;;9.90;100.00
34297;BME280;20564;42.902;25.336;2023-04-26T00:25:12;96260.22;;;9.85;100.00
34297;BME280;20564;42.902;25.336;2023-04-26T00:28:10;96256.44;;;9.87;100.00
34297;BME280;20564;42.902;25.336;2023-04-26T00:31:19;96249.53;;;9.86;100.00
34297;BME280;20564;42.902;25.336;2023-04-26T00:34:02;96243.81;;;9.91;100.00
34297;BME280;20564;42.902;25.336;2023-04-26T00:36:54;96245.94;;;9.87;100.00
34297;BME280;20564;42.902;25.336;2023-04-26T00:39:45;96238.66;;;9.81;100.00
34297;BME280;20564;42.902;25.336;2023-04-26T00:42:26;96243.13;;;9.89;100.00
34297;BME280;20564;42.902;25.336;2023-04-26T00:44:57;96229.47;;;9.85;100.00
34297;BME280;20564;42.902;25.336;2023-04-26T00:47:37;96227.88;;;9.93;100.00
34297;BME280;20564;42.902;25.336;2023-04-26T00:50:14;96235.25;;;9.97;100.00
34297;BME280;20564;42.902;25.336;2023-04-26T00:53:12;96244.31;;;9.95;100.00
34297;BME280;20564;42.902;25.336;2023-04-26T00:56:03;96210.25;;;9.77;100.00
34297;BME280;20564;42.902;25.336;2023-04-26T00:58:49;96215.34;;;9.78;100.00
34297;BME280;20564;42.902;25.336;2023-04-26T01:01:22;96242.81;;;9.92;100.00
34297;BME280;20564;42.902;25.336;2023-04-26T01:03:50;96215.53;;;9.85;100.00
34297;BME280;20564;42.902;25.336;2023-04-26T01:06:24;96217.78;;;9.80;100.00
34297;BME280;20564;42.902;25.336;2023-04-26T01:09:20;96221.28;;;9.80;100.00
34297;BME280;20564;42.902;25.336;2023-04-26T01:12:17;96227.47;;;9.79;100.00
34297;BME280;20564;42.902;25.336;2023-04-26T01:15:20;96233.41;;;9.81;100.00
34297;BME280;20564;42.902;25.336;2023-04-26T01:17:54;96222.56;;;9.76;100.00
34297;BME280;20564;42.902;25.336;2023-04-26T01:20:25;96224.22;;;9.77;100.00
34297;BME280;20564;42.902;25.336;2023-04-26T01:26:20;96209.91;;;9.80;100.00
34297;BME280;20564;42.902;25.336;2023-04-26T01:29:19;96220.97;;;9.92;100.00
34297;BME280;20564;42.902;25.336;2023-04-26T01:32:24;96218.78;;;9.79;100.00
34297;BME280;20564;42.902;25.336;2023-04-26T01:35:09;96206.81;;;9.76;100.00
34297;BME280;20564;42.902;25.336;2023-04-26T01:41:08;96197.94;;;9.77;100.00
34297;BME280;20564;42.902;25.336;2023-04-26T01:43:50;96201.56;;;9.76;100.00
34297;BME280;20564;42.902;25.336;2023-04-26T01:46:32;96199.22;;;9.73;100.00
34297;BME280;20564;42.902;25.336;2023-04-26T01:49:26;96200.19;;;9.72;100.00
34297;BME280;20564;42.902;25.336;2023-04-26T01:52:02;96190.03;;;9.69;100.00
34297;BME280;20564;42.902;25.336;2023-04-26T01:54:36;96180.16;;;9.63;100.00
34297;BME280;20564;42.902;25.336;2023-04-26T01:57:27;96186.72;;;9.67;100.00
34297;BME280;20564;42.902;25.336;2023-04-26T02:00:21;96183.16;;;9.76;100.00
34297;BME280;20564;42.902;25.336;2023-04-26T02:03:02;96177.53;;;9.71;100.00
34297;BME280;20564;42.902;25.336;2023-04-26T02:05:33;96168.84;;;9.79;100.00
34297;BME280;20564;42.902;25.336;2023-04-26T02:08:06;96176.91;;;9.77;100.00
34297;BME280;20564;42.902;25.336;2023-04-26T02:10:39;96172.28;;;9.71;100.00
34297;BME280;20564;42.902;25.336;2023-04-26T02:13:07;96174.56;;;9.66;100.00
34297;BME280;20564;42.902;25.336;2023-04-26T02:15:44;96170.44;;;9.63;100.00
34297;BME280;20564;42.902;25.336;2023-04-26T02:18:19;96175.28;;;9.76;100.00
34297;BME280;20564;42.902;25.336;2023-04-26T02:20:51;96162.09;;;9.68;100.00
34297;BME280;20564;42.902;25.336;2023-04-26T02:23:24;96175.19;;;9.60;100.00
34297;BME280;20564;42.902;25.336;2023-04-26T02:26:03;96170.25;;;9.49;100.00
34297;BME280;20564;42.902;25.336;2023-04-26T02:28:49;96175.66;;;9.47;100.00
34297;BME280;20564;42.902;25.336;2023-04-26T02:31:23;96170.53;;;9.37;100.00
34297;BME280;20564;42.902;25.336;2023-04-26T02:34:24;96167.09;;;9.45;100.00
34297;BME280;20564;42.902;25.336;2023-04-26T02:37:00;96171.97;;;9.32;100.00
34297;BME280;20564;42.902;25.336;2023-04-26T02:39:37;96173.44;;;9.26;100.00
34297;BME280;20564;42.902;25.336;2023-04-26T02:42:11;96175.16;;;9.17;100.00
34297;BME280;20564;42.902;25.336;2023-04-26T02:44:42;96173.66;;;9.07;100.00
34297;BME280;20564;42.902;25.336;2023-04-26T02:47:23;96177.56;;;9.03;100.00
34297;BME280;20564;42.902;25.336;2023-04-26T02:49:58;96170.97;;;8.99;100.00
34297;BME280;20564;42.902;25.336;2023-04-26T02:52:35;96168.00;;;8.93;100.00
34297;BME280;20564;42.902;25.336;2023-04-26T02:55:40;96166.28;;;8.84;100.00
34297;BME280;20564;42.902;25.336;2023-04-26T02:58:33;96169.91;;;8.83;100.00
34297;BME280;20564;42.902;25.336;2023-04-26T03:01:08;96173.81;;;8.79;100.00
34297;BME280;20564;42.902;25.336;2023-04-26T03:03:35;96175.84;;;8.85;100.00
34297;BME280;20564;42.902;25.336;2023-04-26T03:06:04;96182.03;;;8.84;100.00
34297;BME280;20564;42.902;25.336;2023-04-26T03:08:31;96177.56;;;8.77;100.00
34297;BME280;20564;42.902;25.336;2023-04-26T03:11:00;96187.91;;;8.78;100.00
34297;BME280;20564;42.902;25.336;2023-04-26T03:13:32;96185.28;;;8.78;100.00
34297;BME280;20564;42.902;25.336;2023-04-26T03:16:12;96190.94;;;8.65;100.00
34297;BME280;20564;42.902;25.336;2023-04-26T03:18:42;96190.09;;;8.65;100.00
34297;BME280;20564;42.902;25.336;2023-04-26T03:21:09;96193.41;;;8.67;100.00
34297;BME280;20564;42.902;25.336;2023-04-26T03:23:37;96204.03;;;8.65;100.00
34297;BME280;20564;42.902;25.336;2023-04-26T03:26:04;96202.56;;;8.63;100.00
34297;BME280;20564;42.902;25.336;2023-04-26T03:28:31;96210.56;;;8.61;100.00
34297;BME280;20564;42.902;25.336;2023-04-26T03:30:58;96209.75;;;8.61;100.00
34297;BME280;20564;42.902;25.336;2023-04-26T03:33:24;96211.09;;;8.65;100.00
34297;BME280;20564;42.902;25.336;2023-04-26T03:35:51;96221.28;;;8.68;100.00
34297;BME280;20564;42.902;25.336;2023-04-26T03:38:21;96226.53;;;8.68;100.00
34297;BME280;20564;42.902;25.336;2023-04-26T03:40:49;96229.50;;;8.73;100.00
34297;BME280;20564;42.902;25.336;2023-04-26T03:43:15;96239.19;;;8.73;100.00
34297;BME280;20564;42.902;25.336;2023-04-26T03:45:45;96237.78;;;8.78;100.00
34297;BME280;20564;42.902;25.336;2023-04-26T03:48:12;96238.28;;;8.82;100.00
34297;BME280;20564;42.902;25.336;2023-04-26T03:50:39;96226.97;;;8.81;100.00
34297;BME280;20564;42.902;25.336;2023-04-26T03:53:06;96231.53;;;8.79;100.00
34297;BME280;20564;42.902;25.336;2023-04-26T03:55:33;96225.31;;;8.80;100.00
34297;BME280;20564;42.902;25.336;2023-04-26T03:58:00;96228.91;;;8.79;100.00
34297;BME280;20564;42.902;25.336;2023-04-26T04:00:31;96228.91;;;8.79;100.00
34297;BME280;20564;42.902;25.336;2023-04-26T04:02:58;96238.13;;;8.83;100.00
34297;BME280;20564;42.902;25.336;2023-04-26T04:05:25;96247.34;;;8.87;100.00
34297;BME280;20564;42.902;25.336;2023-04-26T04:07:52;96250.34;;;8.92;100.00
34297;BME280;20564;42.902;25.336;2023-04-26T04:10:19;96249.41;;;9.02;100.00
34297;BME280;20564;42.902;25.336;2023-04-26T04:12:49;96251.03;;;9.03;100.00
34297;BME280;20564;42.902;25.336;2023-04-26T04:15:16;96256.72;;;9.16;100.00
34297;BME280;20564;42.902;25.336;2023-04-26T04:17:48;96260.38;;;9.23;100.00
34297;BME280;20564;42.902;25.336;2023-04-26T04:20:18;96261.41;;;9.30;100.00
34297;BME280;20564;42.902;25.336;2023-04-26T04:22:46;96256.88;;;9.40;100.00
34297;BME280;20564;42.902;25.336;2023-04-26T04:25:13;96255.28;;;9.48;100.00
34297;BME280;20564;42.902;25.336;2023-04-26T04:27:41;96264.84;;;9.57;100.00
34297;BME280;20564;42.902;25.336;2023-04-26T04:30:09;96262.22;;;9.57;100.00
34297;BME280;20564;42.902;25.336;2023-04-26T04:32:43;96263.72;;;9.59;100.00
34297;BME280;20564;42.902;25.336;2023-04-26T04:35:12;96265.53;;;9.67;100.00
34297;BME280;20564;42.902;25.336;2023-04-26T04:37:39;96270.34;;;9.80;100.00
34297;BME280;20564;42.902;25.336;2023-04-26T04:40:10;96253.44;;;9.82;100.00
34297;BME280;20564;42.902;25.336;2023-04-26T04:42:46;96253.13;;;9.85;100.00
34297;BME280;20564;42.902;25.336;2023-04-26T04:45:14;96245.59;;;9.90;100.00
34297;BME280;20564;42.902;25.336;2023-04-26T04:47:44;96244.66;;;10.00;100.00
34297;BME280;20564;42.902;25.336;2023-04-26T04:50:15;96245.78;;;10.05;100.00
34297;BME280;20564;42.902;25.336;2023-04-26T04:52:49;96240.03;;;10.02;100.00
34297;BME280;20564;42.902;25.336;2023-04-26T04:55:36;96244.16;;;10.04;100.00
34297;BME280;20564;42.902;25.336;2023-04-26T04:58:03;96237.09;;;10.05;100.00
34297;BME280;20564;42.902;25.336;2023-04-26T05:00:31;96241.41;;;10.14;100.00
34297;BME280;20564;42.902;25.336;2023-04-26T05:02:58;96228.91;;;10.16;100.00
34297;BME280;20564;42.902;25.336;2023-04-26T05:05:26;96239.50;;;10.32;100.00
34297;BME280;20564;42.902;25.336;2023-04-26T05:07:54;96232.94;;;10.53;100.00
34297;BME280;20564;42.902;25.336;2023-04-26T05:10:21;96229.97;;;10.89;100.00
34297;BME280;20564;42.902;25.336;2023-04-26T05:12:48;96231.59;;;11.30;100.00
34297;BME280;20564;42.902;25.336;2023-04-26T05:15:18;96234.75;;;11.65;100.00
34297;BME280;20564;42.902;25.336;2023-04-26T05:17:45;96221.72;;;11.72;100.00
34297;BME280;20564;42.902;25.336;2023-04-26T05:20:12;96216.78;;;11.69;100.00
34297;BME280;20564;42.902;25.336;2023-04-26T05:22:43;96216.78;;;11.69;100.00
34297;BME280;20564;42.902;25.336;2023-04-26T05:25:13;96218.94;;;11.65;100.00
34297;BME280;20564;42.902;25.336;2023-04-26T05:27:47;96221.94;;;11.54;100.00
34297;BME280;20564;42.902;25.336;2023-04-26T05:30:14;96228.06;;;11.46;100.00
34297;BME280;20564;42.902;25.336;2023-04-26T05:32:41;96229.22;;;11.44;100.00
34297;BME280;20564;42.902;25.336;2023-04-26T05:35:08;96230.53;;;11.48;100.00
34297;BME280;20564;42.902;25.336;2023-04-26T05:37:35;96234.00;;;11.48;100.00
34297;BME280;20564;42.902;25.336;2023-04-26T05:40:02;96236.09;;;11.61;100.00
34297;BME280;20564;42.902;25.336;2023-04-26T05:42:30;96225.78;;;11.91;100.00
34297;BME280;20564;42.902;25.336;2023-04-26T05:44:57;96219.00;;;12.27;100.00
34297;BME280;20564;42.902;25.336;2023-04-26T05:47:24;96220.25;;;12.40;100.00
34297;BME280;20564;42.902;25.336;2023-04-26T05:49:51;96212.78;;;12.66;100.00
34297;BME280;20564;42.902;25.336;2023-04-26T05:52:21;96217.25;;;13.03;100.00
34297;BME280;20564;42.902;25.336;2023-04-26T05:54:48;96221.78;;;13.33;100.00
34297;BME280;20564;42.902;25.336;2023-04-26T05:57:15;96222.34;;;13.58;100.00
34297;BME280;20564;42.902;25.336;2023-04-26T05:59:43;96210.56;;;13.90;97.96
34297;BME280;20564;42.902;25.336;2023-04-26T06:02:10;96215.88;;;14.11;97.60
34297;BME280;20564;42.902;25.336;2023-04-26T06:04:40;96218.56;;;14.33;94.06
34297;BME280;20564;42.902;25.336;2023-04-26T06:07:08;96221.53;;;14.59;93.92
34297;BME280;20564;42.902;25.336;2023-04-26T06:09:35;96212.97;;;14.79;90.52
34297;BME280;20564;42.902;25.336;2023-04-26T06:12:02;96211.53;;;15.04;90.84
34297;BME280;20564;42.902;25.336;2023-04-26T06:14:32;96211.66;;;15.17;89.04
34297;BME280;20564;42.902;25.336;2023-04-26T06:16:59;96216.16;;;15.24;83.36
34297;BME280;20564;42.902;25.336;2023-04-26T06:19:26;96209.78;;;15.46;78.50
34297;BME280;20564;42.902;25.336;2023-04-26T06:21:53;96205.72;;;15.50;77.20
34297;BME280;20564;42.902;25.336;2023-04-26T06:24:30;96203.81;;;15.65;76.41
34297;BME280;20564;42.902;25.336;2023-04-26T06:26:58;96200.66;;;15.90;76.00
34297;BME280;20564;42.902;25.336;2023-04-26T06:29:31;96199.75;;;16.18;74.33
34297;BME280;20564;42.902;25.336;2023-04-26T06:32:02;96195.47;;;16.30;69.95
34297;BME280;20564;42.902;25.336;2023-04-26T06:34:29;96205.72;;;16.33;68.70
34297;BME280;20564;42.902;25.336;2023-04-26T06:36:59;96209.63;;;16.50;68.79
34297;BME280;20564;42.902;25.336;2023-04-26T06:39:26;96198.78;;;16.52;66.38
34297;BME280;20564;42.902;25.336;2023-04-26T06:41:55;96201.03;;;16.42;62.77
34297;BME280;20564;42.902;25.336;2023-04-26T06:44:23;96206.59;;;16.67;62.44
34297;BME280;20564;42.902;25.336;2023-04-26T06:46:53;96200.09;;;16.89;63.01
34297;BME280;20564;42.902;25.336;2023-04-26T06:49:22;96210.34;;;17.19;62.19
34297;BME280;20564;42.902;25.336;2023-04-26T06:51:59;96202.53;;;17.37;61.67
34297;BME280;20564;42.902;25.336;2023-04-26T06:54:27;96205.59;;;17.41;60.05
34297;BME280;20564;42.902;25.336;2023-04-26T06:56:55;96197.63;;;17.41;60.90
34297;BME280;20564;42.902;25.336;2023-04-26T06:59:30;96198.78;;;17.78;58.64
34297;BME280;20564;42.902;25.336;2023-04-26T07:02:00;96188.94;;;17.85;58.07
34297;BME280;20564;42.902;25.336;2023-04-26T07:04:29;96201.72;;;17.30;55.82
34297;BME280;20564;42.902;25.336;2023-04-26T07:07:01;96200.94;;;16.90;57.58
34297;BME280;20564;42.902;25.336;2023-04-26T07:09:29;96195.59;;;16.83;57.72
34297;BME280;20564;42.902;25.336;2023-04-26T07:11:56;96208.25;;;16.68;57.05
34297;BME280;20564;42.902;25.336;2023-04-26T07:14:23;96207.81;;;16.57;56.09
34297;BME280;20564;42.902;25.336;2023-04-26T07:16:51;96204.31;;;16.44;57.93
34297;BME280;20564;42.902;25.336;2023-04-26T07:19:32;96206.13;;;16.36;57.03
34297;BME280;20564;42.902;25.336;2023-04-26T07:22:09;96204.66;;;16.21;57.90
34297;BME280;20564;42.902;25.336;2023-04-26T07:24:59;96194.09;;;16.47;56.74
34297;BME280;20564;42.902;25.336;2023-04-26T07:27:43;96195.31;;;16.51;55.85
34297;BME280;20564;42.902;25.336;2023-04-26T07:30:13;96188.16;;;16.52;55.87
34297;BME280;20564;42.902;25.336;2023-04-26T07:32:40;96193.69;;;16.50;57.56
34297;BME280;20564;42.902;25.336;2023-04-26T07:35:11;96196.78;;;16.67;58.07
34297;BME280;20564;42.902;25.336;2023-04-26T07:37:42;96192.53;;;16.99;57.41
34297;BME280;20564;42.902;25.336;2023-04-26T07:40:10;96193.72;;;17.36;56.72
34297;BME280;20564;42.902;25.336;2023-04-26T07:42:39;96196.81;;;17.14;55.09
34297;BME280;20564;42.902;25.336;2023-04-26T07:45:07;96195.81;;;16.88;57.10
34297;BME280;20564;42.902;25.336;2023-04-26T07:47:40;96203.78;;;16.75;55.95
34297;BME280;20564;42.902;25.336;2023-04-26T07:50:10;96200.06;;;16.69;58.09
34297;BME280;20564;42.902;25.336;2023-04-26T07:52:43;96207.81;;;16.57;58.65
34297;BME280;20564;42.902;25.336;2023-04-26T07:55:13;96206.94;;;16.37;56.55
34297;BME280;20564;42.902;25.336;2023-04-26T07:57:51;96206.19;;;16.56;56.14
34297;BME280;20564;42.902;25.336;2023-04-26T08:00:26;96211.50;;;16.70;55.70
34297;BME280;20564;42.902;25.336;2023-04-26T08:02:53;96198.03;;;16.78;54.76
34297;BME280;20564;42.902;25.336;2023-04-26T08:05:21;96201.13;;;16.75;54.11
34297;BME280;20564;42.902;25.336;2023-04-26T08:07:51;96213.19;;;16.84;53.86
34297;BME280;20564;42.902;25.336;2023-04-26T08:10:18;96198.06;;;16.84;53.59
34297;BME280;20564;42.902;25.336;2023-04-26T08:12:45;96201.44;;;16.52;52.21
34297;BME280;20564;42.902;25.336;2023-04-26T08:15:45;96206.72;;;16.32;55.22
34297;BME280;20564;42.902;25.336;2023-04-26T08:18:28;96205.00;;;16.04;54.73
34297;BME280;20564;42.902;25.336;2023-04-26T08:20:59;96206.94;;;16.37;55.24
34297;BME280;20564;42.902;25.336;2023-04-26T08:23:43;96195.97;;;16.67;53.61
34297;BME280;20564;42.902;25.336;2023-04-26T08:26:15;96203.59;;;16.83;52.06
34297;BME280;20564;42.902;25.336;2023-04-26T08:28:45;96198.47;;;17.01;52.85
34297;BME280;20564;42.902;25.336;2023-04-26T08:31:21;96192.53;;;17.13;52.27
34297;BME280;20564;42.902;25.336;2023-04-26T08:33:48;96196.59;;;17.35;53.08
34297;BME280;20564;42.902;25.336;2023-04-26T08:36:15;96191.81;;;17.77;51.33
34297;BME280;20564;42.902;25.336;2023-04-26T08:38:42;96184.34;;;17.99;50.83
34297;BME280;20564;42.902;25.336;2023-04-26T08:41:12;96183.34;;;18.06;48.63
34297;BME280;20564;42.902;25.336;2023-04-26T08:43:42;96176.00;;;18.34;49.29
34297;BME280;20564;42.902;25.336;2023-04-26T08:46:14;96184.91;;;18.52;47.71
34297;BME280;20564;42.902;25.336;2023-04-26T08:48:50;96180.66;;;18.83;47.75
34297;BME280;20564;42.902;25.336;2023-04-26T08:51:20;96191.03;;;19.16;47.85
34297;BME280;20564;42.902;25.336;2023-04-26T08:53:49;96180.84;;;19.32;46.40
34297;BME280;20564;42.902;25.336;2023-04-26T08:56:21;96178.50;;;19.60;45.91
34297;BME280;20564;42.902;25.336;2023-04-26T08:58:49;96184.38;;;19.87;45.53
34297;BME280;20564;42.902;25.336;2023-04-26T09:01:17;96183.94;;;20.09;46.68
34297;BME280;20564;42.902;25.336;2023-04-26T09:03:44;96192.16;;;19.70;45.14
34297;BME280;20564;42.902;25.336;2023-04-26T09:06:13;96187.88;;;19.44;44.89
34297;BME280;20564;42.902;25.336;2023-04-26T09:08:41;96179.00;;;19.50;45.15
34297;BME280;20564;42.902;25.336;2023-04-26T09:11:08;96175.94;;;19.90;45.58
34297;BME280;20564;42.902;25.336;2023-04-26T09:13:35;96173.78;;;20.29;45.47
34297;BME280;20564;42.902;25.336;2023-04-26T09:16:02;96166.50;;;20.36;44.25
34297;BME280;20564;42.902;25.336;2023-04-26T09:18:30;96189.03;;;20.10;43.93
34297;BME280;20564;42.902;25.336;2023-04-26T09:21:05;96184.69;;;19.79;43.33
34297;BME280;20564;42.902;25.336;2023-04-26T09:23:33;96176.72;;;19.11;42.21
34297;BME280;20564;42.902;25.336;2023-04-26T09:26:19;96184.97;;;18.77;45.07
34297;BME280;20564;42.902;25.336;2023-04-26T09:28:47;96186.94;;;18.19;45.80
34297;BME280;20564;42.902;25.336;2023-04-26T09:31:35;96184.03;;;17.82;47.05
34297;BME280;20564;42.902;25.336;2023-04-26T09:34:03;96194.28;;;17.58;47.25
34297;BME280;20564;42.902;25.336;2023-04-26T09:36:30;96195.56;;;17.49;47.10
34297;BME280;20564;42.902;25.336;2023-04-26T09:39:00;96189.84;;;17.39;48.16
34297;BME280;20564;42.902;25.336;2023-04-26T09:41:42;96180.41;;;17.50;48.46
34297;BME280;20564;42.902;25.336;2023-04-26T09:44:20;96179.97;;;17.59;46.69
34297;BME280;20564;42.902;25.336;2023-04-26T09:49:27;96177.16;;;17.48;46.23
34297;BME280;20564;42.902;25.336;2023-04-26T09:52:05;96182.81;;;17.78;46.49
34297;BME280;20564;42.902;25.336;2023-04-26T09:58:09;96181.97;;;18.61;43.18
34297;BME280;20564;42.902;25.336;2023-04-26T10:00:37;96177.75;;;18.85;43.34
34297;BME280;20564;42.902;25.336;2023-04-26T10:03:08;96179.09;;;18.94;42.76
34297;BME280;20564;42.902;25.336;2023-04-26T10:05:35;96175.97;;;18.72;42.09
34297;BME280;20564;42.902;25.336;2023-04-26T10:08:07;96176.91;;;18.52;42.79
34297;BME280;20564;42.902;25.336;2023-04-26T10:10:34;96177.94;;;18.51;43.15
34297;BME280;20564;42.902;25.336;2023-04-26T10:13:04;96169.59;;;18.41;43.34
34297;BME280;20564;42.902;25.336;2023-04-26T10:15:32;96180.44;;;18.08;42.51
34297;BME280;20564;42.902;25.336;2023-04-26T10:18:03;96166.34;;;18.01;44.31
34297;BME280;20564;42.902;25.336;2023-04-26T10:20:31;96172.56;;;17.81;42.48
34297;BME280;20564;42.902;25.336;2023-04-26T10:23:02;96174.84;;;17.65;44.26
34297;BME280;20564;42.902;25.336;2023-04-26T10:25:39;96170.56;;;17.57;42.68
34297;BME280;20564;42.902;25.336;2023-04-26T10:28:07;96173.22;;;17.50;43.00
34297;BME280;20564;42.902;25.336;2023-04-26T10:30:57;96179.19;;;17.39;43.74
34297;BME280;20564;42.902;25.336;2023-04-26T10:33:25;96184.13;;;17.35;42.92
34297;BME280;20564;42.902;25.336;2023-04-26T10:36:05;96179.19;;;17.32;43.08
34297;BME280;20564;42.902;25.336;2023-04-26T10:38:35;96179.41;;;17.44;43.98
34297;BME280;20564;42.902;25.336;2023-04-26T10:41:28;96178.38;;;17.32;43.17
34297;BME280;20564;42.902;25.336;2023-04-26T10:43:58;96175.78;;;17.19;44.39
34297;BME280;20564;42.902;25.336;2023-04-26T10:46:34;96172.69;;;17.08;45.65
34297;BME280;20564;42.902;25.336;2023-04-26T10:49:16;96176.41;;;17.01;45.00
34297;BME280;20564;42.902;25.336;2023-04-26T10:52:08;96175.97;;;16.97;44.93
34297;BME280;20564;42.902;25.336;2023-04-26T10:54:58;96166.16;;;16.91;45.67
34297;BME280;20564;42.902;25.336;2023-04-26T10:58:24;96162.06;;;17.08;45.46
34297;BME280;20564;42.902;25.336;2023-04-26T11:01:07;96161.03;;;17.23;45.00
34297;BME280;20564;42.902;25.336;2023-04-26T11:03:35;96160.41;;;17.21;45.23
34297;BME280;20564;42.902;25.336;2023-04-26T11:06:06;96166.53;;;17.28;44.90
34297;BME280;20564;42.902;25.336;2023-04-26T11:08:35;96162.03;;;17.22;43.78
34297;BME280;20564;42.902;25.336;2023-04-26T11:13:30;96162.88;;;17.02;46.02
34297;BME280;20564;42.902;25.336;2023-04-26T11:16:03;96168.41;;;16.94;46.86
34297;BME280;20564;42.902;25.336;2023-04-26T11:18:38;96170.25;;;16.87;47.43
34297;BME280;20564;42.902;25.336;2023-04-26T11:21:08;96171.88;;;16.88;48.11
34297;BME280;20564;42.902;25.336;2023-04-26T11:23:35;96169.66;;;16.78;47.01
34297;BME280;20564;42.902;25.336;2023-04-26T11:26:07;96177.19;;;16.81;47.28
34297;BME280;20564;42.902;25.336;2023-04-26T11:28:36;96177.22;;;16.75;45.62
34297;BME280;20564;42.902;25.336;2023-04-26T11:31:05;96182.91;;;16.72;45.33
34297;BME280;20564;42.902;25.336;2023-04-26T11:33:34;96185.34;;;16.53;47.32
34297;BME280;20564;42.902;25.336;2023-04-26T11:36:01;96182.28;;;16.70;46.86
34297;BME280;20564;42.902;25.336;2023-04-26T11:38:29;96178.38;;;16.66;47.11
34297;BME280;20564;42.902;25.336;2023-04-26T11:41:01;96171.88;;;16.81;46.15
34297;BME280;20564;42.902;25.336;2023-04-26T11:43:36;96169.22;;;17.01;46.32
34297;BME280;20564;42.902;25.336;2023-04-26T11:46:07;96178.84;;;17.09;45.49
34297;BME280;20564;42.902;25.336;2023-04-26T11:48:35;96178.03;;;17.08;44.50
34297;BME280;20564;42.902;25.336;2023-04-26T11:51:04;96192.31;;;17.07;45.03
34297;BME280;20564;42.902;25.336;2023-04-26T11:53:41;96184.34;;;17.21;45.11
34297;BME280;20564;42.902;25.336;2023-04-26T11:56:19;96179.13;;;17.66;45.02
34297;BME280;20564;42.902;25.336;2023-04-26T11:58:54;96179.34;;;17.71;42.09
34297;BME280;20564;42.902;25.336;2023-04-26T12:02:04;96174.88;;;18.10;43.75
34297;BME280;20564;42.902;25.336;2023-04-26T12:08:48;96181.41;;;18.59;41.50
34297;BME280;20564;42.902;25.336;2023-04-26T12:11:47;96186.78;;;18.45;42.27
34297;BME280;20564;42.902;25.336;2023-04-26T12:14:43;96188.66;;;18.45;42.33
34297;BME280;20564;42.902;25.336;2023-04-26T12:21:42;96192.56;;;17.97;41.92
34297;BME280;20564;42.902;25.336;2023-04-26T12:25:17;96186.44;;;17.90;42.93
34297;BME280;20564;42.902;25.336;2023-04-26T12:27:42;96183.34;;;18.06;42.61
34297;BME280;20564;42.902;25.336;2023-04-26T12:30:42;96189.56;;;18.32;42.01
34297;BME280;20564;42.902;25.336;2023-04-26T12:33:47;96180.59;;;18.20;41.86
34297;BME280;20564;42.902;25.336;2023-04-26T12:36:57;96175.34;;;18.06;42.44
34297;BME280;20564;42.902;25.336;2023-04-26T12:43:25;96164.97;;;18.30;42.46
34297;BME280;20564;42.902;25.336;2023-04-26T12:46:38;96167.28;;;18.51;42.62
34297;BME280;20564;42.902;25.336;2023-04-26T12:49:15;96165.50;;;18.77;42.03
34297;BME280;20564;42.902;25.336;2023-04-26T12:51:57;96170.09;;;18.95;43.05
34297;BME280;20564;42.902;25.336;2023-04-26T12:54:46;96173.66;;;18.82;41.36
34297;BME280;20564;42.902;25.336;2023-04-26T12:57:14;96174.84;;;18.86;42.21
34297;BME280;20564;42.902;25.336;2023-04-26T12:59:42;96166.00;;;18.92;41.78
34297;BME280;20564;42.902;25.336;2023-04-26T13:02:22;96172.63;;;19.08;41.05
34297;BME280;20564;42.902;25.336;2023-04-26T13:04:50;96164.66;;;19.26;39.92
34297;BME280;20564;42.902;25.336;2023-04-26T13:07:19;96170.84;;;19.27;39.62
34297;BME280;20564;42.902;25.336;2023-04-26T13:09:49;96166.00;;;19.17;40.16
34297;BME280;20564;42.902;25.336;2023-04-26T13:12:19;96179.38;;;18.86;41.20
34297;BME280;20564;42.902;25.336;2023-04-26T13:14:59;96172.44;;;18.46;41.45
34297;BME280;20564;42.902;25.336;2023-04-26T13:17:27;96171.56;;;18.21;42.06
34297;BME280;20564;42.902;25.336;2023-04-26T13:19:54;96174.16;;;18.34;43.32
34297;BME280;20564;42.902;25.336;2023-04-26T13:22:27;96171.63;;;18.46;42.59
34297;BME280;20564;42.902;25.336;2023-04-26T13:24:57;96174.59;;;18.63;41.25
34297;BME280;20564;42.902;25.336;2023-04-26T13:27:27;96170.59;;;18.78;41.64
34297;BME280;20564;42.902;25.336;2023-04-26T13:29:57;96180.19;;;18.86;41.75
34297;BME280;20564;42.902;25.336;2023-04-26T13:32:24;96172.38;;;18.91;41.71
34297;BME280;20564;42.902;25.336;2023-04-26T13:34:51;96179.72;;;18.96;41.28
34297;BME280;20564;42.902;25.336;2023-04-26T13:37:18;96186.47;;;18.98;41.77
34297;BME280;20564;42.902;25.336;2023-04-26T13:39:47;96195.50;;;18.66;41.93
34297;BME280;20564;42.902;25.336;2023-04-26T13:42:17;96180.63;;;18.51;43.01
34297;BME280;20564;42.902;25.336;2023-04-26T13:44:50;96187.06;;;18.69;42.72
34297;BME280;20564;42.902;25.336;2023-04-26T13:47:17;96177.66;;;18.66;42.49
34297;BME280;20564;42.902;25.336;2023-04-26T13:49:44;96180.31;;;18.73;41.67
34297;BME280;20564;42.902;25.336;2023-04-26T13:52:11;96186.03;;;18.70;42.43
34297;BME280;20564;42.902;25.336;2023-04-26T13:54:38;96184.84;;;18.66;41.74
34297;BME280;20564;42.902;25.336;2023-04-26T13:57:08;96187.81;;;18.51;42.49
34297;BME280;20564;42.902;25.336;2023-04-26T13:59:34;96186.81;;;18.07;42.59